UPS2 EDDK-VHHX
Flight info
| Callsign | UPS2 |
|---|---|
| Flight time | N/A |
| Altitude | 31000 |
| Route | KUMIK2Q KUMIK L603 TESGA DCT ESATI DCT BOREP DCT ENITA DCT PEPIK DCT TEGRI DCT ZUBOK DCT DINRO DCT UDROS UM859 BIMVO/N0495F330 UM859 KARDE UL851 TBN UM11 REBLO M11 LUSAL N199 RASAM L88 METKA B476 DARVA T898 OGOLI N193 SR L163 TISIB/K0922F350 L141 KAMUD/K0917S1070 W186 SADAN L888 SANLI DCT BHS/K0919S1130 W237 IDBOR B330 AVPAM A599 POU |
| Aircraft | B748/H-SDE3FGHIM1M2RWXY/LB1 |
Departure
| Time | 2026-05-01 08:04 |
|---|---|
| Airport | Cologne Bonn Airport (EDDK) |
Arrival
| Time | N/A |
|---|---|
| Airport | Hong Kong International Airport Kai Tak (VHHX) |
| Time | Latitude | Longitude | Altitude | Speed | Heading |
|---|---|---|---|---|---|
| 2026-05-01 07:23 | 50.87125 | 7.13432 | 248 ft | 0 kts | 227° |
| 2026-05-01 07:56 | 50.87145 | 7.13465 | 248 ft | 2 kts | 227° |
| 2026-05-01 07:56 | 50.87168 | 7.13503 | 248 ft | 2 kts | 237° |
| 2026-05-01 07:57 | 50.87173 | 7.13527 | 248 ft | 2 kts | 276° |
| 2026-05-01 07:57 | 50.87163 | 7.13575 | 248 ft | 2 kts | 310° |
| 2026-05-01 07:58 | 50.87159 | 7.13583 | 248 ft | 0 kts | 316° |
| 2026-05-01 08:00 | 50.87296 | 7.13384 | 245 ft | 17 kts | 317° |
| 2026-05-01 08:01 | 50.87571 | 7.12984 | 240 ft | 19 kts | 317° |
| 2026-05-01 08:01 | 50.87666 | 7.12847 | 240 ft | 18 kts | 317° |
| 2026-05-01 08:01 | 50.87759 | 7.12712 | 240 ft | 18 kts | 317° |
| 2026-05-01 08:02 | 50.87916 | 7.12626 | 240 ft | 10 kts | 21° |
| 2026-05-01 08:02 | 50.87972 | 7.12692 | 242 ft | 9 kts | 52° |
| 2026-05-01 08:03 | 50.88007 | 7.12847 | 246 ft | 10 kts | 86° |
| 2026-05-01 08:03 | 50.87990 | 7.12971 | 248 ft | 14 kts | 115° |
| 2026-05-01 08:03 | 50.87575 | 7.13593 | 256 ft | 110 kts | 137° |
| 2026-05-01 08:04 | 50.85797 | 7.16150 | 1217 ft | 189 kts | 139° |
| 2026-05-01 08:04 | 50.83771 | 7.18969 | 2818 ft | 206 kts | 139° |
| 2026-05-01 08:05 | 50.81899 | 7.22538 | 3806 ft | 230 kts | 119° |
| 2026-05-01 08:05 | 50.81347 | 7.24986 | 4593 ft | 242 kts | 105° |
| 2026-05-01 08:05 | 50.81099 | 7.27656 | 5470 ft | 249 kts | 99° |
| 2026-05-01 08:06 | 50.80674 | 7.33233 | 7125 ft | 261 kts | 100° |
| 2026-05-01 08:06 | 50.80154 | 7.39019 | 8689 ft | 269 kts | 100° |
| 2026-05-01 08:07 | 50.79637 | 7.44939 | 10288 ft | 275 kts | 99° |
| 2026-05-01 08:07 | 50.79095 | 7.51064 | 11392 ft | 296 kts | 99° |
| 2026-05-01 08:08 | 50.78798 | 7.54411 | 11854 ft | 312 kts | 98° |
| 2026-05-01 08:08 | 50.78589 | 7.61586 | 12619 ft | 351 kts | 82° |
| 2026-05-01 08:09 | 50.79495 | 7.69589 | 13520 ft | 386 kts | 81° |
| 2026-05-01 08:09 | 50.79983 | 7.73812 | 14281 ft | 394 kts | 81° |
| 2026-05-01 08:09 | 50.80453 | 7.78116 | 15051 ft | 400 kts | 81° |
| 2026-05-01 08:10 | 50.81422 | 7.86918 | 16566 ft | 410 kts | 81° |
| 2026-05-01 08:10 | 50.82417 | 7.95913 | 18059 ft | 420 kts | 81° |
| 2026-05-01 08:11 | 50.82655 | 8.05179 | 19369 ft | 428 kts | 98° |
| 2026-05-01 08:11 | 50.80734 | 8.14169 | 20596 ft | 438 kts | 118° |
| 2026-05-01 08:12 | 50.77368 | 8.22258 | 21695 ft | 448 kts | 122° |
| 2026-05-01 08:12 | 50.75624 | 8.26355 | 22235 ft | 451 kts | 122° |
| 2026-05-01 08:12 | 50.72111 | 8.34676 | 23277 ft | 459 kts | 122° |
| 2026-05-01 08:13 | 50.70118 | 8.38654 | 23772 ft | 465 kts | 131° |
| 2026-05-01 08:13 | 50.67678 | 8.42046 | 24207 ft | 471 kts | 143° |
| 2026-05-01 08:13 | 50.61953 | 8.47211 | 24963 ft | 481 kts | 150° |
| 2026-05-01 08:14 | 50.58990 | 8.49692 | 25324 ft | 484 kts | 150° |
| 2026-05-01 08:14 | 50.56012 | 8.52197 | 25694 ft | 488 kts | 150° |
| 2026-05-01 08:14 | 50.53007 | 8.54737 | 26047 ft | 491 kts | 150° |
| 2026-05-01 08:14 | 50.49989 | 8.57280 | 26407 ft | 494 kts | 150° |
| 2026-05-01 08:15 | 50.46947 | 8.59828 | 26768 ft | 497 kts | 150° |
| 2026-05-01 08:15 | 50.41477 | 8.66421 | 27497 ft | 499 kts | 134° |
| 2026-05-01 08:15 | 50.38970 | 8.70206 | 27856 ft | 502 kts | 134° |
| 2026-05-01 08:16 | 50.36459 | 8.74022 | 28213 ft | 505 kts | 134° |
| 2026-05-01 08:16 | 50.33927 | 8.77834 | 28750 ft | 504 kts | 134° |
| 2026-05-01 08:16 | 50.31390 | 8.81627 | 29283 ft | 504 kts | 134° |
| 2026-05-01 08:16 | 50.28863 | 8.85412 | 29831 ft | 503 kts | 134° |
| 2026-05-01 08:17 | 50.26361 | 8.89170 | 30391 ft | 503 kts | 134° |
| 2026-05-01 08:17 | 50.23838 | 8.92948 | 30846 ft | 502 kts | 134° |
| 2026-05-01 08:17 | 50.21315 | 8.96709 | 31269 ft | 500 kts | 134° |
| 2026-05-01 08:17 | 50.18797 | 9.00458 | 31383 ft | 500 kts | 134° |
| 2026-05-01 08:18 | 50.16282 | 9.04204 | 31380 ft | 499 kts | 134° |
| 2026-05-01 08:19 | 50.07107 | 9.20104 | 31410 ft | 490 kts | 113° |
| 2026-05-01 08:19 | 50.05952 | 9.25069 | 31405 ft | 486 kts | 101° |
| 2026-05-01 08:19 | 50.05473 | 9.30251 | 31406 ft | 483 kts | 92° |
| 2026-05-01 08:20 | 50.05036 | 9.40675 | 31395 ft | 483 kts | 94° |
| 2026-05-01 08:20 | 50.04255 | 9.51019 | 31397 ft | 483 kts | 94° |
| 2026-05-01 08:21 | 50.03650 | 9.61418 | 31397 ft | 483 kts | 94° |
| 2026-05-01 08:21 | 50.02934 | 9.71831 | 31401 ft | 484 kts | 94° |
| 2026-05-01 08:22 | 50.02261 | 9.82211 | 31404 ft | 484 kts | 94° |
| 2026-05-01 08:22 | 50.01553 | 9.92626 | 31420 ft | 484 kts | 94° |
| 2026-05-01 08:23 | 50.00846 | 10.03015 | 31414 ft | 484 kts | 94° |
| 2026-05-01 08:23 | 50.00130 | 10.13369 | 31422 ft | 483 kts | 94° |
| 2026-05-01 08:24 | 49.99402 | 10.23762 | 31426 ft | 483 kts | 94° |
| 2026-05-01 08:24 | 49.98666 | 10.34136 | 31427 ft | 483 kts | 94° |
| 2026-05-01 08:25 | 49.97626 | 10.44258 | 31425 ft | 485 kts | 102° |
| 2026-05-01 08:25 | 49.95819 | 10.54383 | 31423 ft | 485 kts | 102° |
| 2026-05-01 08:26 | 49.94423 | 10.64594 | 31429 ft | 481 kts | 99° |
| 2026-05-01 08:26 | 49.92872 | 10.74643 | 31428 ft | 482 kts | 101° |
| 2026-05-01 08:27 | 49.91366 | 10.84759 | 31428 ft | 481 kts | 100° |
| 2026-05-01 08:27 | 49.89834 | 10.94879 | 31423 ft | 482 kts | 101° |
| 2026-05-01 08:28 | 49.88291 | 11.04977 | 31423 ft | 479 kts | 100° |
| 2026-05-01 08:28 | 49.86753 | 11.15045 | 31425 ft | 480 kts | 101° |
| 2026-05-01 08:29 | 49.85198 | 11.25095 | 31430 ft | 480 kts | 101° |
| 2026-05-01 08:29 | 49.83642 | 11.35141 | 31428 ft | 480 kts | 101° |
| 2026-05-01 08:30 | 49.82072 | 11.45182 | 31427 ft | 478 kts | 101° |
| 2026-05-01 08:30 | 49.80510 | 11.55134 | 31428 ft | 478 kts | 101° |
| 2026-05-01 08:31 | 49.78931 | 11.65112 | 31429 ft | 477 kts | 101° |
| 2026-05-01 08:31 | 49.77347 | 11.75081 | 31427 ft | 477 kts | 101° |
| 2026-05-01 08:32 | 49.75750 | 11.85051 | 31421 ft | 477 kts | 101° |
| 2026-05-01 08:32 | 49.74151 | 11.94991 | 31422 ft | 476 kts | 101° |
| 2026-05-01 08:33 | 49.72543 | 12.04917 | 31421 ft | 476 kts | 101° |
| 2026-05-01 08:33 | 49.70929 | 12.14829 | 31423 ft | 476 kts | 101° |
| 2026-05-01 08:34 | 49.69312 | 12.24692 | 31432 ft | 476 kts | 101° |
| 2026-05-01 08:34 | 49.67677 | 12.34608 | 31435 ft | 475 kts | 101° |
| 2026-05-01 08:35 | 49.66038 | 12.44502 | 31439 ft | 475 kts | 101° |
| 2026-05-01 08:35 | 49.64400 | 12.54323 | 31440 ft | 475 kts | 101° |
| 2026-05-01 08:36 | 49.62749 | 12.64170 | 31436 ft | 474 kts | 101° |
| 2026-05-01 08:36 | 49.61087 | 12.74018 | 31441 ft | 473 kts | 101° |
| 2026-05-01 08:37 | 49.59427 | 12.83808 | 31436 ft | 471 kts | 101° |
| 2026-05-01 08:37 | 49.57759 | 12.93584 | 31436 ft | 471 kts | 101° |
| 2026-05-01 08:38 | 49.56095 | 13.03284 | 31437 ft | 471 kts | 101° |
| 2026-05-01 08:38 | 49.54446 | 13.12841 | 31453 ft | 471 kts | 101° |
| 2026-05-01 08:39 | 49.52754 | 13.22594 | 31455 ft | 471 kts | 101° |
| 2026-05-01 08:39 | 49.51054 | 13.32343 | 31453 ft | 471 kts | 101° |
| 2026-05-01 08:40 | 49.48501 | 13.46882 | 31450 ft | 471 kts | 101° |
| 2026-05-01 08:40 | 49.46781 | 13.56607 | 31433 ft | 470 kts | 101° |
| 2026-05-01 08:41 | 49.45060 | 13.66294 | 31429 ft | 468 kts | 101° |
| 2026-05-01 08:41 | 49.43333 | 13.75954 | 31425 ft | 468 kts | 101° |
| 2026-05-01 08:42 | 49.41647 | 13.85341 | 31428 ft | 468 kts | 101° |
| 2026-05-01 08:42 | 49.39907 | 13.94971 | 31422 ft | 468 kts | 101° |
| 2026-05-01 08:43 | 49.38160 | 14.04591 | 31435 ft | 467 kts | 101° |
| 2026-05-01 08:43 | 49.36404 | 14.14211 | 31434 ft | 466 kts | 101° |
| 2026-05-01 08:44 | 49.34657 | 14.23734 | 31436 ft | 466 kts | 101° |
| 2026-05-01 08:44 | 49.32889 | 14.33320 | 31434 ft | 466 kts | 101° |
| 2026-05-01 08:45 | 49.31117 | 14.42874 | 31436 ft | 465 kts | 101° |
| 2026-05-01 08:45 | 49.29340 | 14.52410 | 31436 ft | 465 kts | 101° |
| 2026-05-01 08:46 | 49.27555 | 14.61941 | 31432 ft | 465 kts | 101° |
| 2026-05-01 08:46 | 49.25762 | 14.71462 | 31425 ft | 465 kts | 101° |
| 2026-05-01 08:47 | 49.23973 | 14.80913 | 31438 ft | 465 kts | 101° |
| 2026-05-01 08:47 | 49.22173 | 14.90378 | 31424 ft | 462 kts | 101° |
| 2026-05-01 08:48 | 49.20373 | 14.99800 | 31424 ft | 461 kts | 101° |
| 2026-05-01 08:48 | 49.18564 | 15.09213 | 31416 ft | 461 kts | 101° |
| 2026-05-01 08:49 | 49.17055 | 15.17034 | 31420 ft | 461 kts | 101° |
| 2026-05-01 08:49 | 49.15233 | 15.26434 | 31410 ft | 460 kts | 101° |
| 2026-05-01 08:50 | 49.13408 | 15.35806 | 31412 ft | 460 kts | 101° |
| 2026-05-01 08:50 | 49.11578 | 15.45154 | 31410 ft | 460 kts | 101° |
| 2026-05-01 08:51 | 49.09738 | 15.54508 | 31403 ft | 460 kts | 101° |
| 2026-05-01 08:51 | 49.07889 | 15.63857 | 31416 ft | 460 kts | 101° |
| 2026-05-01 08:52 | 49.06095 | 15.72892 | 31407 ft | 457 kts | 101° |
| 2026-05-01 08:52 | 49.04244 | 15.82174 | 31405 ft | 457 kts | 101° |
| 2026-05-01 08:53 | 49.02383 | 15.91451 | 31404 ft | 457 kts | 101° |
| 2026-05-01 08:53 | 49.00514 | 16.00730 | 31424 ft | 457 kts | 101° |
| 2026-05-01 08:54 | 48.98644 | 16.09971 | 31420 ft | 456 kts | 101° |
| 2026-05-01 08:54 | 48.96770 | 16.19185 | 31419 ft | 455 kts | 101° |
| 2026-05-01 08:55 | 48.94889 | 16.28394 | 31413 ft | 456 kts | 101° |
| 2026-05-01 08:55 | 48.93010 | 16.37549 | 31411 ft | 456 kts | 101° |
| 2026-05-01 08:56 | 48.91113 | 16.46752 | 31402 ft | 455 kts | 101° |
| 2026-05-01 08:56 | 48.89211 | 16.55931 | 31406 ft | 453 kts | 101° |
| 2026-05-01 08:57 | 48.87313 | 16.65058 | 31406 ft | 453 kts | 101° |
| 2026-05-01 08:57 | 48.85408 | 16.74165 | 31401 ft | 452 kts | 101° |
| 2026-05-01 08:58 | 48.83508 | 16.83218 | 31401 ft | 453 kts | 101° |
| 2026-05-01 08:58 | 48.81589 | 16.92311 | 31400 ft | 451 kts | 101° |
| 2026-05-01 08:59 | 48.79662 | 17.01353 | 31399 ft | 451 kts | 103° |
| 2026-05-01 08:59 | 48.76793 | 17.09961 | 31413 ft | 466 kts | 117° |
| 2026-05-01 09:00 | 48.72617 | 17.17660 | 31405 ft | 475 kts | 124° |
| 2026-05-01 09:00 | 48.68320 | 17.25046 | 31405 ft | 476 kts | 124° |
| 2026-05-01 09:01 | 48.63981 | 17.32470 | 31397 ft | 475 kts | 124° |
| 2026-05-01 09:01 | 48.59589 | 17.39967 | 31399 ft | 475 kts | 124° |
| 2026-05-01 09:02 | 48.55198 | 17.47441 | 31400 ft | 475 kts | 124° |
| 2026-05-01 09:02 | 48.50828 | 17.54858 | 31428 ft | 476 kts | 124° |
| 2026-05-01 09:03 | 48.46433 | 17.62297 | 31387 ft | 474 kts | 124° |
| 2026-05-01 09:03 | 48.42041 | 17.69713 | 31384 ft | 473 kts | 124° |
| 2026-05-01 09:04 | 48.37738 | 17.76955 | 31388 ft | 473 kts | 124° |
| 2026-05-01 09:04 | 48.33342 | 17.84334 | 31390 ft | 473 kts | 124° |
| 2026-05-01 09:05 | 48.28981 | 17.91631 | 31389 ft | 471 kts | 124° |
| 2026-05-01 09:05 | 48.24607 | 17.98936 | 31383 ft | 471 kts | 124° |
| 2026-05-01 09:06 | 48.20208 | 18.06256 | 31383 ft | 471 kts | 124° |
| 2026-05-01 09:06 | 48.15810 | 18.13559 | 31387 ft | 471 kts | 124° |
| 2026-05-01 09:07 | 48.11408 | 18.20844 | 31415 ft | 472 kts | 123° |
| 2026-05-01 09:07 | 48.07035 | 18.28064 | 31378 ft | 471 kts | 123° |
| 2026-05-01 09:08 | 48.02636 | 18.35306 | 31390 ft | 470 kts | 123° |
| 2026-05-01 09:08 | 47.98242 | 18.42521 | 31389 ft | 470 kts | 123° |
| 2026-05-01 09:09 | 47.93836 | 18.49734 | 31386 ft | 469 kts | 123° |
| 2026-05-01 09:09 | 47.89437 | 18.56916 | 31391 ft | 468 kts | 123° |
| 2026-05-01 09:10 | 47.85036 | 18.64085 | 31389 ft | 469 kts | 123° |
| 2026-05-01 09:10 | 47.80732 | 18.71075 | 31385 ft | 469 kts | 123° |
| 2026-05-01 09:11 | 47.76349 | 18.78175 | 31388 ft | 468 kts | 123° |
| 2026-05-01 09:11 | 47.71935 | 18.85305 | 31376 ft | 468 kts | 123° |
| 2026-05-01 09:12 | 47.67531 | 18.92400 | 31384 ft | 468 kts | 123° |
| 2026-05-01 09:12 | 47.63104 | 18.99515 | 31382 ft | 468 kts | 123° |
| 2026-05-01 09:13 | 47.58707 | 19.06559 | 31375 ft | 468 kts | 123° |
| 2026-05-01 09:13 | 47.54284 | 19.13630 | 31378 ft | 468 kts | 123° |
| 2026-05-01 09:14 | 47.49852 | 19.20692 | 31386 ft | 467 kts | 123° |
| 2026-05-01 09:14 | 47.45518 | 19.27585 | 31384 ft | 468 kts | 123° |
| 2026-05-01 09:15 | 47.41076 | 19.34625 | 31379 ft | 467 kts | 123° |
| 2026-05-01 09:15 | 47.36670 | 19.41596 | 31378 ft | 466 kts | 123° |
| 2026-05-01 09:16 | 47.32235 | 19.48588 | 31371 ft | 466 kts | 123° |
| 2026-05-01 09:17 | 47.25579 | 19.59055 | 31367 ft | 466 kts | 123° |
| 2026-05-01 09:17 | 47.18909 | 19.69496 | 31363 ft | 466 kts | 123° |
| 2026-05-01 09:18 | 47.12369 | 19.79697 | 31373 ft | 466 kts | 123° |
| 2026-05-01 09:19 | 47.05682 | 19.90089 | 31377 ft | 467 kts | 123° |
| 2026-05-01 09:20 | 46.98974 | 20.00470 | 31375 ft | 467 kts | 123° |
| 2026-05-01 09:21 | 46.90040 | 20.14236 | 31368 ft | 468 kts | 123° |
| 2026-05-01 09:21 | 46.83308 | 20.24559 | 31369 ft | 468 kts | 124° |
| 2026-05-01 09:22 | 46.74321 | 20.38281 | 31359 ft | 467 kts | 124° |
| 2026-05-01 09:23 | 46.67677 | 20.48379 | 31357 ft | 467 kts | 124° |
| 2026-05-01 09:24 | 46.60913 | 20.58620 | 31356 ft | 468 kts | 124° |
| 2026-05-01 09:25 | 46.51899 | 20.72208 | 31351 ft | 469 kts | 124° |
| 2026-05-01 09:26 | 46.45188 | 20.82277 | 31344 ft | 469 kts | 125° |
| 2026-05-01 09:26 | 46.38363 | 20.92482 | 31359 ft | 470 kts | 125° |
| 2026-05-01 09:27 | 46.31492 | 21.02713 | 31349 ft | 472 kts | 126° |
| 2026-05-01 09:28 | 46.27304 | 21.09807 | 31357 ft | 459 kts | 115° |
| 2026-05-01 09:28 | 46.24377 | 21.17822 | 31356 ft | 443 kts | 103° |
| 2026-05-01 09:29 | 46.21096 | 21.30403 | 31355 ft | 448 kts | 103° |
| 2026-05-01 09:30 | 46.17816 | 21.42959 | 31348 ft | 446 kts | 104° |
| 2026-05-01 09:30 | 46.14502 | 21.55555 | 31339 ft | 448 kts | 104° |
| 2026-05-01 09:31 | 46.12266 | 21.64044 | 31335 ft | 460 kts | 105° |
| 2026-05-01 09:32 | 46.08653 | 21.76910 | 31328 ft | 462 kts | 107° |
| 2026-05-01 09:32 | 46.04877 | 21.89677 | 31327 ft | 462 kts | 108° |
| 2026-05-01 09:33 | 46.02350 | 21.98186 | 31330 ft | 470 kts | 108° |
| 2026-05-01 09:34 | 45.98527 | 22.10978 | 31322 ft | 469 kts | 108° |
| 2026-05-01 09:34 | 45.94654 | 22.23888 | 31321 ft | 469 kts | 108° |
| 2026-05-01 09:35 | 45.90738 | 22.36873 | 31319 ft | 476 kts | 109° |
| 2026-05-01 09:36 | 45.88093 | 22.45599 | 31304 ft | 477 kts | 109° |
| 2026-05-01 09:36 | 45.85891 | 22.52852 | 31314 ft | 476 kts | 109° |
| 2026-05-01 09:37 | 45.83232 | 22.61572 | 31309 ft | 477 kts | 110° |
| 2026-05-01 09:37 | 45.79194 | 22.74758 | 31307 ft | 481 kts | 110° |
| 2026-05-01 09:38 | 45.75163 | 22.87855 | 31305 ft | 480 kts | 110° |
| 2026-05-01 09:39 | 45.71086 | 23.01038 | 31309 ft | 486 kts | 111° |
| 2026-05-01 09:39 | 45.68340 | 23.09869 | 31304 ft | 486 kts | 111° |
| 2026-05-01 09:40 | 45.64227 | 23.23054 | 31301 ft | 485 kts | 111° |
| 2026-05-01 09:41 | 45.61469 | 23.31855 | 31303 ft | 487 kts | 111° |
| 2026-05-01 09:41 | 45.57290 | 23.45132 | 31300 ft | 488 kts | 111° |
| 2026-05-01 09:42 | 45.54545 | 23.53814 | 31300 ft | 489 kts | 111° |
| 2026-05-01 09:43 | 45.48956 | 23.71408 | 31296 ft | 488 kts | 112° |
| 2026-05-01 09:43 | 45.46133 | 23.80248 | 31300 ft | 489 kts | 112° |
| 2026-05-01 09:44 | 45.41889 | 23.93485 | 31305 ft | 490 kts | 112° |
| 2026-05-01 09:45 | 45.39040 | 24.02328 | 31312 ft | 492 kts | 112° |
| 2026-05-01 09:45 | 45.34753 | 24.15584 | 31305 ft | 492 kts | 112° |
| 2026-05-01 09:46 | 45.31901 | 24.24360 | 31307 ft | 491 kts | 112° |
| 2026-05-01 09:46 | 45.29024 | 24.33190 | 31302 ft | 493 kts | 113° |
| 2026-05-01 09:47 | 45.26129 | 24.42045 | 31302 ft | 494 kts | 113° |
| 2026-05-01 09:47 | 45.23226 | 24.50890 | 31301 ft | 494 kts | 113° |
| 2026-05-01 09:48 | 45.20318 | 24.59722 | 31302 ft | 494 kts | 113° |
| 2026-05-01 09:48 | 45.17401 | 24.68554 | 31311 ft | 495 kts | 114° |
| 2026-05-01 09:49 | 45.14539 | 24.77190 | 31308 ft | 495 kts | 114° |
| 2026-05-01 09:49 | 45.11606 | 24.86010 | 31313 ft | 495 kts | 114° |
| 2026-05-01 09:50 | 45.08660 | 24.94840 | 31302 ft | 497 kts | 114° |
| 2026-05-01 09:50 | 45.05690 | 25.03713 | 31307 ft | 498 kts | 114° |
| 2026-05-01 09:51 | 45.02783 | 25.12366 | 31312 ft | 498 kts | 114° |
| 2026-05-01 09:51 | 44.99805 | 25.21204 | 31317 ft | 498 kts | 114° |
| 2026-05-01 09:52 | 44.96816 | 25.30044 | 31302 ft | 499 kts | 114° |
| 2026-05-01 09:52 | 44.93814 | 25.38894 | 31305 ft | 500 kts | 114° |
| 2026-05-01 09:53 | 44.90804 | 25.47737 | 31307 ft | 500 kts | 114° |
| 2026-05-01 09:53 | 44.87790 | 25.56565 | 31325 ft | 500 kts | 114° |
| 2026-05-01 09:54 | 44.84759 | 25.65410 | 31329 ft | 501 kts | 114° |
| 2026-05-01 09:54 | 44.81737 | 25.74203 | 31328 ft | 501 kts | 114° |
| 2026-05-01 09:55 | 44.78692 | 25.83032 | 31311 ft | 501 kts | 115° |
| 2026-05-01 09:55 | 44.75638 | 25.91857 | 31320 ft | 502 kts | 115° |
| 2026-05-01 09:56 | 44.72568 | 26.00700 | 31321 ft | 502 kts | 115° |
| 2026-05-01 09:56 | 44.69498 | 26.09517 | 31318 ft | 502 kts | 115° |
| 2026-05-01 09:57 | 44.66420 | 26.18323 | 31319 ft | 502 kts | 115° |
| 2026-05-01 09:57 | 44.63400 | 26.26939 | 31342 ft | 504 kts | 115° |
| 2026-05-01 09:58 | 44.60303 | 26.35745 | 31340 ft | 502 kts | 115° |
| 2026-05-01 09:58 | 44.57207 | 26.44519 | 31334 ft | 501 kts | 116° |
| 2026-05-01 09:59 | 44.54114 | 26.53258 | 31330 ft | 500 kts | 116° |
| 2026-05-01 09:59 | 44.52558 | 26.57644 | 31471 ft | 502 kts | 116° |
| 2026-05-01 09:59 | 44.50997 | 26.62036 | 31623 ft | 504 kts | 116° |
| 2026-05-01 10:00 | 44.49449 | 26.66385 | 31770 ft | 505 kts | 116° |
| 2026-05-01 10:00 | 44.47877 | 26.70794 | 31924 ft | 507 kts | 116° |
| 2026-05-01 10:00 | 44.46297 | 26.75219 | 32093 ft | 508 kts | 116° |
| 2026-05-01 10:00 | 44.44714 | 26.79644 | 32259 ft | 509 kts | 116° |
| 2026-05-01 10:01 | 44.43120 | 26.84092 | 32448 ft | 510 kts | 116° |
| 2026-05-01 10:01 | 44.41529 | 26.88525 | 32630 ft | 510 kts | 116° |
| 2026-05-01 10:01 | 44.39934 | 26.92963 | 32838 ft | 511 kts | 116° |
| 2026-05-01 10:01 | 44.38336 | 26.97401 | 33040 ft | 511 kts | 116° |
| 2026-05-01 10:02 | 44.36735 | 27.01843 | 33280 ft | 511 kts | 116° |
| 2026-05-01 10:02 | 44.35135 | 27.06270 | 33311 ft | 509 kts | 116° |
| 2026-05-01 10:02 | 44.31999 | 27.14936 | 33308 ft | 509 kts | 117° |
| 2026-05-01 10:03 | 44.28815 | 27.23697 | 33308 ft | 509 kts | 117° |
| 2026-05-01 10:03 | 44.25606 | 27.32505 | 33308 ft | 509 kts | 117° |
| 2026-05-01 10:04 | 44.22393 | 27.41297 | 33298 ft | 509 kts | 117° |
| 2026-05-01 10:04 | 44.19165 | 27.50097 | 33296 ft | 509 kts | 117° |
| 2026-05-01 10:05 | 44.15937 | 27.58872 | 33300 ft | 509 kts | 117° |
| 2026-05-01 10:05 | 44.12718 | 27.67596 | 33296 ft | 509 kts | 118° |
| 2026-05-01 10:06 | 44.09468 | 27.76375 | 33293 ft | 511 kts | 118° |
| 2026-05-01 10:06 | 44.06190 | 27.85199 | 33289 ft | 513 kts | 118° |
| 2026-05-01 10:07 | 44.02909 | 27.94006 | 33291 ft | 513 kts | 118° |
| 2026-05-01 10:07 | 43.99635 | 28.02766 | 33284 ft | 513 kts | 118° |
| 2026-05-01 10:08 | 43.94717 | 28.15875 | 33281 ft | 516 kts | 118° |
| 2026-05-01 10:09 | 43.91396 | 28.24689 | 33272 ft | 516 kts | 118° |
| 2026-05-01 10:09 | 43.88066 | 28.33503 | 33271 ft | 516 kts | 119° |
| 2026-05-01 10:10 | 43.84756 | 28.42235 | 33269 ft | 514 kts | 119° |
| 2026-05-01 10:10 | 43.79752 | 28.55384 | 33267 ft | 514 kts | 119° |
| 2026-05-01 10:11 | 43.76414 | 28.64123 | 33280 ft | 513 kts | 120° |
| 2026-05-01 10:11 | 43.73093 | 28.72785 | 33268 ft | 513 kts | 120° |
| 2026-05-01 10:12 | 43.70294 | 28.80031 | 33267 ft | 512 kts | 123° |
| 2026-05-01 10:13 | 43.63426 | 28.93402 | 33269 ft | 510 kts | 129° |
| 2026-05-01 10:13 | 43.59297 | 29.01293 | 33270 ft | 510 kts | 129° |
| 2026-05-01 10:14 | 43.53039 | 29.13176 | 33268 ft | 510 kts | 129° |
| 2026-05-01 10:14 | 43.48868 | 29.21082 | 33253 ft | 508 kts | 129° |
| 2026-05-01 10:15 | 43.44727 | 29.28901 | 33246 ft | 508 kts | 129° |
| 2026-05-01 10:15 | 43.40558 | 29.36758 | 33243 ft | 508 kts | 129° |
| 2026-05-01 10:16 | 43.36379 | 29.44612 | 33241 ft | 507 kts | 130° |
| 2026-05-01 10:17 | 43.30115 | 29.56340 | 33240 ft | 507 kts | 130° |
| 2026-05-01 10:17 | 43.23835 | 29.68055 | 33231 ft | 507 kts | 130° |
| 2026-05-01 10:18 | 43.17623 | 29.79599 | 33221 ft | 507 kts | 131° |
| 2026-05-01 10:19 | 43.13426 | 29.87370 | 33226 ft | 507 kts | 131° |
| 2026-05-01 10:19 | 43.09224 | 29.95136 | 33223 ft | 506 kts | 132° |
| 2026-05-01 10:20 | 43.02947 | 30.06688 | 33215 ft | 504 kts | 132° |
| 2026-05-01 10:20 | 42.98785 | 30.14330 | 33207 ft | 504 kts | 132° |
| 2026-05-01 10:21 | 42.92509 | 30.25810 | 33209 ft | 500 kts | 133° |
| 2026-05-01 10:22 | 42.86295 | 30.37132 | 33202 ft | 500 kts | 133° |
| 2026-05-01 10:23 | 42.80040 | 30.48491 | 33203 ft | 498 kts | 134° |
| 2026-05-01 10:23 | 42.74557 | 30.60636 | 33208 ft | 515 kts | 117° |
| 2026-05-01 10:24 | 42.72827 | 30.70222 | 33207 ft | 529 kts | 103° |
| 2026-05-01 10:24 | 42.71816 | 30.80099 | 33211 ft | 531 kts | 104° |
| 2026-05-01 10:25 | 42.69950 | 30.98292 | 33185 ft | 530 kts | 104° |
| 2026-05-01 10:26 | 42.68919 | 31.08228 | 33186 ft | 530 kts | 104° |
| 2026-05-01 10:27 | 42.66833 | 31.28014 | 33170 ft | 530 kts | 104° |
| 2026-05-01 10:28 | 42.65243 | 31.42879 | 33185 ft | 530 kts | 105° |
| 2026-05-01 10:28 | 42.63631 | 31.57771 | 33170 ft | 530 kts | 105° |
| 2026-05-01 10:29 | 42.62002 | 31.72629 | 33158 ft | 530 kts | 105° |
| 2026-05-01 10:30 | 42.59808 | 31.92355 | 33154 ft | 529 kts | 105° |
| 2026-05-01 10:31 | 42.57603 | 32.12091 | 33145 ft | 528 kts | 105° |
| 2026-05-01 10:32 | 42.55897 | 32.26863 | 33151 ft | 528 kts | 105° |
| 2026-05-01 10:33 | 42.53620 | 32.46487 | 33152 ft | 528 kts | 105° |
| 2026-05-01 10:34 | 42.51896 | 32.61162 | 33133 ft | 525 kts | 105° |
| 2026-05-01 10:34 | 42.50734 | 32.70927 | 33127 ft | 524 kts | 105° |
| 2026-05-01 10:35 | 42.48981 | 32.85553 | 33126 ft | 524 kts | 106° |
| 2026-05-01 10:35 | 42.47809 | 32.95233 | 33124 ft | 524 kts | 106° |
| 2026-05-01 10:36 | 42.46024 | 33.09844 | 33125 ft | 524 kts | 106° |
| 2026-05-01 10:37 | 42.44820 | 33.19606 | 33118 ft | 524 kts | 106° |
| 2026-05-01 10:37 | 42.43005 | 33.34162 | 33122 ft | 525 kts | 106° |
| 2026-05-01 10:38 | 42.41781 | 33.43912 | 33144 ft | 525 kts | 106° |
| 2026-05-01 10:38 | 42.40547 | 33.53665 | 33126 ft | 525 kts | 106° |
| 2026-05-01 10:39 | 42.39307 | 33.63403 | 33082 ft | 525 kts | 106° |
| 2026-05-01 10:39 | 42.38072 | 33.73043 | 33109 ft | 521 kts | 107° |
| 2026-05-01 10:40 | 42.36824 | 33.82688 | 33113 ft | 520 kts | 107° |
| 2026-05-01 10:40 | 42.35572 | 33.92335 | 33106 ft | 520 kts | 107° |
| 2026-05-01 10:41 | 42.34314 | 34.01984 | 33109 ft | 519 kts | 107° |
| 2026-05-01 10:42 | 42.32422 | 34.16365 | 33102 ft | 519 kts | 107° |
| 2026-05-01 10:42 | 42.31148 | 34.25976 | 33101 ft | 519 kts | 107° |
| 2026-05-01 10:43 | 42.29863 | 34.35590 | 33074 ft | 519 kts | 107° |
| 2026-05-01 10:43 | 42.28580 | 34.45137 | 33091 ft | 519 kts | 107° |
| 2026-05-01 10:44 | 42.27285 | 34.54690 | 33086 ft | 519 kts | 107° |
| 2026-05-01 10:44 | 42.25977 | 34.64287 | 33089 ft | 519 kts | 107° |
| 2026-05-01 10:45 | 42.24660 | 34.73874 | 33089 ft | 519 kts | 107° |
| 2026-05-01 10:45 | 42.23335 | 34.83465 | 33090 ft | 519 kts | 107° |
| 2026-05-01 10:46 | 42.22000 | 34.93028 | 33089 ft | 519 kts | 107° |
| 2026-05-01 10:46 | 42.20659 | 35.02590 | 33080 ft | 519 kts | 107° |
| 2026-05-01 10:47 | 42.19311 | 35.12138 | 33079 ft | 518 kts | 107° |
| 2026-05-01 10:47 | 42.17964 | 35.21615 | 33077 ft | 518 kts | 107° |
| 2026-05-01 10:48 | 42.16599 | 35.31162 | 33072 ft | 518 kts | 107° |
| 2026-05-01 10:48 | 42.15226 | 35.40706 | 33041 ft | 518 kts | 107° |
| 2026-05-01 10:49 | 42.13856 | 35.50195 | 33076 ft | 516 kts | 107° |
| 2026-05-01 10:49 | 42.12479 | 35.59676 | 33069 ft | 515 kts | 107° |
| 2026-05-01 10:50 | 42.11103 | 35.69092 | 33063 ft | 515 kts | 107° |
| 2026-05-01 10:50 | 42.09710 | 35.78569 | 33062 ft | 514 kts | 107° |
| 2026-05-01 10:51 | 42.08312 | 35.88019 | 33050 ft | 514 kts | 107° |
| 2026-05-01 10:51 | 42.06906 | 35.97466 | 33051 ft | 514 kts | 107° |
| 2026-05-01 10:52 | 42.05499 | 36.06870 | 33052 ft | 514 kts | 107° |
| 2026-05-01 10:52 | 42.04079 | 36.16295 | 33047 ft | 513 kts | 107° |
| 2026-05-01 10:53 | 42.02658 | 36.25679 | 33041 ft | 513 kts | 107° |
| 2026-05-01 10:53 | 42.01236 | 36.35016 | 33041 ft | 513 kts | 107° |
| 2026-05-01 10:54 | 41.99793 | 36.44432 | 33040 ft | 513 kts | 107° |
| 2026-05-01 10:54 | 41.98340 | 36.53861 | 33040 ft | 514 kts | 107° |
| 2026-05-01 10:55 | 41.96890 | 36.63223 | 33044 ft | 514 kts | 107° |
| 2026-05-01 10:55 | 41.95420 | 36.72649 | 33045 ft | 514 kts | 107° |
| 2026-05-01 10:56 | 41.93945 | 36.82060 | 33037 ft | 514 kts | 107° |
| 2026-05-01 10:56 | 41.92464 | 36.91459 | 33036 ft | 514 kts | 107° |
| 2026-05-01 10:57 | 41.90983 | 37.00796 | 33040 ft | 514 kts | 107° |
| 2026-05-01 10:57 | 41.88741 | 37.09786 | 33016 ft | 504 kts | 118° |
| 2026-05-01 10:58 | 41.86040 | 37.18383 | 33023 ft | 505 kts | 118° |
| 2026-05-01 10:58 | 41.83305 | 37.27063 | 33017 ft | 505 kts | 118° |
| 2026-05-01 10:59 | 41.80553 | 37.35764 | 33018 ft | 505 kts | 118° |
| 2026-05-01 10:59 | 41.77805 | 37.44425 | 33017 ft | 506 kts | 118° |
| 2026-05-01 11:00 | 41.75041 | 37.53115 | 33013 ft | 506 kts | 118° |
| 2026-05-01 11:00 | 41.72288 | 37.61734 | 33011 ft | 506 kts | 118° |
| 2026-05-01 11:01 | 41.69510 | 37.70412 | 33013 ft | 507 kts | 118° |
| 2026-05-01 11:01 | 41.66721 | 37.79099 | 33009 ft | 508 kts | 118° |
| 2026-05-01 11:02 | 41.63929 | 37.87769 | 33009 ft | 508 kts | 118° |
| 2026-05-01 11:02 | 41.61143 | 37.96391 | 33010 ft | 508 kts | 118° |
| 2026-05-01 11:03 | 41.58341 | 38.05037 | 33011 ft | 506 kts | 118° |
| 2026-05-01 11:03 | 41.55530 | 38.13678 | 33008 ft | 507 kts | 118° |
| 2026-05-01 11:04 | 41.52721 | 38.22292 | 33008 ft | 506 kts | 118° |
| 2026-05-01 11:04 | 41.49898 | 38.30915 | 33009 ft | 506 kts | 118° |
| 2026-05-01 11:05 | 41.47090 | 38.39471 | 33007 ft | 506 kts | 118° |
| 2026-05-01 11:05 | 41.44261 | 38.48063 | 33015 ft | 506 kts | 118° |
| 2026-05-01 11:06 | 41.41424 | 38.56649 | 32989 ft | 506 kts | 118° |
| 2026-05-01 11:06 | 41.38577 | 38.65241 | 33004 ft | 507 kts | 118° |
| 2026-05-01 11:07 | 41.34294 | 38.78119 | 33004 ft | 506 kts | 118° |
| 2026-05-01 11:07 | 41.31471 | 38.86722 | 32999 ft | 507 kts | 117° |
| 2026-05-01 11:08 | 41.28680 | 38.95290 | 32998 ft | 507 kts | 118° |
| 2026-05-01 11:09 | 41.24437 | 39.08183 | 32998 ft | 507 kts | 118° |
| 2026-05-01 11:09 | 41.21603 | 39.16760 | 33012 ft | 507 kts | 119° |
| 2026-05-01 11:10 | 41.17183 | 39.29496 | 33010 ft | 506 kts | 119° |
| 2026-05-01 11:10 | 41.14202 | 39.37965 | 33012 ft | 506 kts | 120° |
| 2026-05-01 11:11 | 41.11237 | 39.46442 | 33005 ft | 506 kts | 119° |
| 2026-05-01 11:11 | 41.08274 | 39.54852 | 33009 ft | 506 kts | 120° |
| 2026-05-01 11:12 | 41.05789 | 39.61894 | 33004 ft | 506 kts | 120° |
| 2026-05-01 11:12 | 41.02803 | 39.70338 | 32990 ft | 506 kts | 120° |
| 2026-05-01 11:13 | 41.00150 | 39.78991 | 33004 ft | 513 kts | 108° |
| 2026-05-01 11:13 | 40.99319 | 39.88446 | 33005 ft | 520 kts | 95° |
| 2026-05-01 11:14 | 40.99097 | 39.98032 | 32998 ft | 521 kts | 95° |
| 2026-05-01 11:14 | 40.98858 | 40.07614 | 32977 ft | 520 kts | 95° |
| 2026-05-01 11:15 | 40.98613 | 40.17205 | 32987 ft | 520 kts | 95° |
| 2026-05-01 11:15 | 40.98362 | 40.26709 | 32985 ft | 520 kts | 95° |
| 2026-05-01 11:16 | 40.98096 | 40.36276 | 32992 ft | 520 kts | 95° |
| 2026-05-01 11:16 | 40.97826 | 40.45858 | 32986 ft | 520 kts | 95° |
| 2026-05-01 11:17 | 40.97546 | 40.55398 | 32983 ft | 517 kts | 95° |
| 2026-05-01 11:17 | 40.97263 | 40.64848 | 32985 ft | 516 kts | 95° |
| 2026-05-01 11:18 | 40.96969 | 40.74346 | 32994 ft | 515 kts | 95° |
| 2026-05-01 11:18 | 40.96668 | 40.83865 | 32995 ft | 517 kts | 95° |
| 2026-05-01 11:19 | 40.96359 | 40.93378 | 32997 ft | 516 kts | 95° |
| 2026-05-01 11:19 | 40.96044 | 41.02797 | 32997 ft | 517 kts | 95° |
| 2026-05-01 11:20 | 40.95719 | 41.12316 | 33006 ft | 517 kts | 95° |
| 2026-05-01 11:20 | 40.95385 | 41.21817 | 33007 ft | 517 kts | 95° |
| 2026-05-01 11:21 | 40.95048 | 41.31249 | 33002 ft | 517 kts | 95° |
| 2026-05-01 11:21 | 40.94700 | 41.40748 | 33009 ft | 516 kts | 95° |
| 2026-05-01 11:22 | 40.94343 | 41.50254 | 32979 ft | 515 kts | 95° |
| 2026-05-01 11:22 | 40.93979 | 41.59755 | 32987 ft | 517 kts | 95° |
| 2026-05-01 11:23 | 40.93610 | 41.69197 | 32972 ft | 516 kts | 95° |
| 2026-05-01 11:23 | 40.93231 | 41.78671 | 32979 ft | 515 kts | 95° |
| 2026-05-01 11:24 | 40.92845 | 41.88136 | 32985 ft | 515 kts | 95° |
| 2026-05-01 11:25 | 40.92252 | 42.02330 | 32982 ft | 515 kts | 95° |
| 2026-05-01 11:25 | 40.91644 | 42.16461 | 32989 ft | 514 kts | 95° |
| 2026-05-01 11:26 | 40.91016 | 42.30637 | 33011 ft | 514 kts | 95° |
| 2026-05-01 11:27 | 40.90589 | 42.40069 | 33013 ft | 513 kts | 96° |
| 2026-05-01 11:27 | 40.90155 | 42.49476 | 33022 ft | 513 kts | 96° |
| 2026-05-01 11:28 | 40.89713 | 42.58893 | 33033 ft | 513 kts | 96° |
| 2026-05-01 11:28 | 40.89267 | 42.68247 | 33039 ft | 513 kts | 96° |
| 2026-05-01 11:29 | 40.88578 | 42.82365 | 33043 ft | 513 kts | 96° |
| 2026-05-01 11:30 | 40.87874 | 42.96461 | 33041 ft | 511 kts | 96° |
| 2026-05-01 11:30 | 40.87395 | 43.05830 | 33036 ft | 511 kts | 96° |
| 2026-05-01 11:31 | 40.86910 | 43.15203 | 33046 ft | 511 kts | 96° |
| 2026-05-01 11:31 | 40.86417 | 43.24560 | 33038 ft | 510 kts | 96° |
| 2026-05-01 11:32 | 40.85916 | 43.33923 | 33045 ft | 511 kts | 96° |
| 2026-05-01 11:32 | 40.85408 | 43.43286 | 33044 ft | 510 kts | 96° |
| 2026-05-01 11:33 | 40.84896 | 43.52573 | 33043 ft | 510 kts | 96° |
| 2026-05-01 11:33 | 40.84374 | 43.61909 | 33043 ft | 510 kts | 96° |
| 2026-05-01 11:34 | 40.83924 | 43.71261 | 33054 ft | 511 kts | 94° |
| 2026-05-01 11:34 | 40.83608 | 43.80636 | 33055 ft | 511 kts | 95° |
| 2026-05-01 11:35 | 40.83303 | 43.90012 | 33058 ft | 511 kts | 94° |
| 2026-05-01 11:35 | 40.82988 | 43.99400 | 33065 ft | 512 kts | 95° |
| 2026-05-01 11:36 | 40.82664 | 44.08725 | 33068 ft | 512 kts | 95° |
| 2026-05-01 11:36 | 40.82336 | 44.18105 | 33059 ft | 512 kts | 95° |
| 2026-05-01 11:37 | 40.81995 | 44.27493 | 33057 ft | 512 kts | 95° |
| 2026-05-01 11:37 | 40.81650 | 44.36870 | 33057 ft | 511 kts | 95° |
| 2026-05-01 11:38 | 40.81296 | 44.46245 | 33064 ft | 511 kts | 95° |
| 2026-05-01 11:38 | 40.80935 | 44.55633 | 33065 ft | 511 kts | 95° |
| 2026-05-01 11:39 | 40.80568 | 44.64951 | 33043 ft | 511 kts | 95° |
| 2026-05-01 11:39 | 40.80192 | 44.74316 | 33062 ft | 511 kts | 95° |
| 2026-05-01 11:40 | 40.79807 | 44.83716 | 33064 ft | 512 kts | 95° |
| 2026-05-01 11:40 | 40.79416 | 44.93084 | 33070 ft | 512 kts | 95° |
| 2026-05-01 11:41 | 40.79015 | 45.02472 | 33058 ft | 513 kts | 96° |
| 2026-05-01 11:41 | 40.78607 | 45.11871 | 33063 ft | 513 kts | 96° |
| 2026-05-01 11:42 | 40.78193 | 45.21240 | 33060 ft | 510 kts | 96° |
| 2026-05-01 11:42 | 40.77773 | 45.30539 | 33063 ft | 510 kts | 96° |
| 2026-05-01 11:43 | 40.77344 | 45.39903 | 33064 ft | 511 kts | 96° |
| 2026-05-01 11:43 | 40.76907 | 45.49265 | 33072 ft | 510 kts | 97° |
| 2026-05-01 11:44 | 40.75705 | 45.63144 | 33076 ft | 507 kts | 99° |
| 2026-05-01 11:44 | 40.74872 | 45.72388 | 33077 ft | 507 kts | 100° |
| 2026-05-01 11:45 | 40.74032 | 45.81568 | 33078 ft | 508 kts | 100° |
| 2026-05-01 11:45 | 40.73183 | 45.90813 | 33073 ft | 506 kts | 100° |
| 2026-05-01 11:46 | 40.72324 | 46.00043 | 33076 ft | 506 kts | 100° |
| 2026-05-01 11:46 | 40.71462 | 46.09256 | 33076 ft | 506 kts | 100° |
| 2026-05-01 11:47 | 40.70591 | 46.18465 | 33076 ft | 506 kts | 100° |
| 2026-05-01 11:47 | 40.69719 | 46.27618 | 33069 ft | 506 kts | 100° |
| 2026-05-01 11:48 | 40.68834 | 46.36821 | 33075 ft | 506 kts | 100° |
| 2026-05-01 11:48 | 40.67940 | 46.46039 | 33076 ft | 506 kts | 100° |
| 2026-05-01 11:49 | 40.67046 | 46.55184 | 33078 ft | 506 kts | 100° |
| 2026-05-01 11:49 | 40.66140 | 46.64371 | 33081 ft | 506 kts | 100° |
| 2026-05-01 11:50 | 40.65228 | 46.73543 | 33080 ft | 505 kts | 100° |
| 2026-05-01 11:50 | 40.64307 | 46.82730 | 33077 ft | 505 kts | 100° |
| 2026-05-01 11:51 | 40.63380 | 46.91901 | 33074 ft | 505 kts | 101° |
| 2026-05-01 11:51 | 40.62447 | 47.01063 | 33071 ft | 505 kts | 101° |
| 2026-05-01 11:52 | 40.61506 | 47.10226 | 33085 ft | 506 kts | 101° |
| 2026-05-01 11:52 | 40.60636 | 47.19410 | 33088 ft | 507 kts | 95° |
| 2026-05-01 11:53 | 40.60384 | 47.28639 | 33086 ft | 508 kts | 95° |
| 2026-05-01 11:53 | 40.60119 | 47.37937 | 33086 ft | 508 kts | 95° |
| 2026-05-01 11:54 | 40.59847 | 47.47230 | 33085 ft | 508 kts | 95° |
| 2026-05-01 11:54 | 40.59569 | 47.56522 | 33086 ft | 508 kts | 95° |
| 2026-05-01 11:55 | 40.59282 | 47.65807 | 33081 ft | 507 kts | 95° |
| 2026-05-01 11:55 | 40.58991 | 47.75040 | 33083 ft | 508 kts | 95° |
| 2026-05-01 11:56 | 40.58689 | 47.84340 | 33081 ft | 508 kts | 95° |
| 2026-05-01 11:56 | 40.58381 | 47.93624 | 33069 ft | 508 kts | 95° |
| 2026-05-01 11:57 | 40.58508 | 48.01356 | 33082 ft | 509 kts | 90° |
| 2026-05-01 11:57 | 40.58823 | 48.12242 | 33083 ft | 509 kts | 90° |
| 2026-05-01 11:58 | 40.59067 | 48.21503 | 33084 ft | 509 kts | 90° |
| 2026-05-01 11:59 | 40.59431 | 48.35467 | 33076 ft | 509 kts | 90° |
| 2026-05-01 11:59 | 40.59663 | 48.44787 | 33077 ft | 509 kts | 90° |
| 2026-05-01 12:00 | 40.59997 | 48.58747 | 33064 ft | 509 kts | 91° |
| 2026-05-01 12:01 | 40.60279 | 48.71146 | 33056 ft | 509 kts | 91° |
| 2026-05-01 12:01 | 40.60482 | 48.80463 | 33048 ft | 509 kts | 91° |
| 2026-05-01 12:02 | 40.60678 | 48.89775 | 33034 ft | 509 kts | 91° |
| 2026-05-01 12:02 | 40.60866 | 48.99079 | 33026 ft | 508 kts | 91° |
| 2026-05-01 12:03 | 40.61047 | 49.08380 | 33017 ft | 508 kts | 91° |
| 2026-05-01 12:03 | 40.61218 | 49.17646 | 33007 ft | 508 kts | 91° |
| 2026-05-01 12:04 | 40.61694 | 49.26920 | 33009 ft | 507 kts | 88° |
| 2026-05-01 12:04 | 40.62223 | 49.36191 | 33006 ft | 509 kts | 88° |
| 2026-05-01 12:05 | 40.62758 | 49.45490 | 33015 ft | 510 kts | 88° |
| 2026-05-01 12:05 | 40.63539 | 49.59470 | 33018 ft | 510 kts | 88° |
| 2026-05-01 12:06 | 40.64049 | 49.68707 | 33034 ft | 508 kts | 88° |
| 2026-05-01 12:06 | 40.64550 | 49.77982 | 33051 ft | 506 kts | 88° |
| 2026-05-01 12:07 | 40.65045 | 49.87236 | 33046 ft | 506 kts | 88° |
| 2026-05-01 12:07 | 40.65531 | 49.96492 | 33056 ft | 506 kts | 88° |
| 2026-05-01 12:08 | 40.66010 | 50.05745 | 33057 ft | 506 kts | 88° |
| 2026-05-01 12:08 | 40.66482 | 50.15003 | 33054 ft | 506 kts | 88° |
| 2026-05-01 12:09 | 40.66946 | 50.24248 | 33056 ft | 506 kts | 88° |
| 2026-05-01 12:09 | 40.67399 | 50.33445 | 33059 ft | 506 kts | 88° |
| 2026-05-01 12:10 | 40.68072 | 50.47346 | 33084 ft | 506 kts | 88° |
| 2026-05-01 12:11 | 40.68724 | 50.61226 | 33097 ft | 506 kts | 88° |
| 2026-05-01 12:11 | 40.69148 | 50.70429 | 33091 ft | 506 kts | 88° |
| 2026-05-01 12:12 | 40.69567 | 50.79693 | 33097 ft | 506 kts | 88° |
| 2026-05-01 12:12 | 40.69978 | 50.88959 | 33109 ft | 506 kts | 88° |
| 2026-05-01 12:13 | 40.70382 | 50.98225 | 33101 ft | 506 kts | 88° |
| 2026-05-01 12:13 | 40.70776 | 51.07429 | 33106 ft | 505 kts | 88° |
| 2026-05-01 12:14 | 40.71167 | 51.16739 | 33114 ft | 505 kts | 88° |
| 2026-05-01 12:14 | 40.71546 | 51.25928 | 33109 ft | 505 kts | 88° |
| 2026-05-01 12:15 | 40.71919 | 51.35176 | 33122 ft | 505 kts | 88° |
| 2026-05-01 12:15 | 40.72286 | 51.44425 | 33115 ft | 505 kts | 88° |
| 2026-05-01 12:16 | 40.73109 | 51.53617 | 33131 ft | 507 kts | 79° |
| 2026-05-01 12:16 | 40.74623 | 51.62698 | 33137 ft | 507 kts | 78° |
| 2026-05-01 12:17 | 40.76114 | 51.71790 | 33139 ft | 507 kts | 79° |
| 2026-05-01 12:17 | 40.77605 | 51.80895 | 33145 ft | 507 kts | 78° |
| 2026-05-01 12:18 | 40.79089 | 51.90007 | 33138 ft | 507 kts | 79° |
| 2026-05-01 12:18 | 40.80553 | 51.99055 | 33143 ft | 507 kts | 79° |
| 2026-05-01 12:19 | 40.82021 | 52.08159 | 33143 ft | 507 kts | 79° |
| 2026-05-01 12:19 | 40.83477 | 52.17253 | 33129 ft | 506 kts | 79° |
| 2026-05-01 12:20 | 40.84928 | 52.26358 | 33133 ft | 506 kts | 79° |
| 2026-05-01 12:20 | 40.86371 | 52.35462 | 33139 ft | 506 kts | 79° |
| 2026-05-01 12:21 | 40.87807 | 52.44567 | 33141 ft | 506 kts | 79° |
| 2026-05-01 12:21 | 40.89230 | 52.53645 | 33139 ft | 506 kts | 79° |
| 2026-05-01 12:22 | 40.90430 | 52.62812 | 33160 ft | 505 kts | 87° |
| 2026-05-01 12:22 | 40.90832 | 52.72079 | 33141 ft | 505 kts | 88° |
| 2026-05-01 12:23 | 40.91227 | 52.81303 | 33141 ft | 505 kts | 88° |
| 2026-05-01 12:23 | 40.91621 | 52.90568 | 33135 ft | 505 kts | 88° |
| 2026-05-01 12:24 | 40.92001 | 52.99834 | 33137 ft | 504 kts | 88° |
| 2026-05-01 12:24 | 40.92379 | 53.09091 | 33134 ft | 504 kts | 88° |
| 2026-05-01 12:25 | 40.92915 | 53.22974 | 33133 ft | 504 kts | 88° |
| 2026-05-01 12:26 | 40.93260 | 53.32170 | 33136 ft | 504 kts | 88° |
| 2026-05-01 12:26 | 40.93766 | 53.46054 | 33138 ft | 504 kts | 88° |
| 2026-05-01 12:27 | 40.94257 | 53.59952 | 33138 ft | 504 kts | 88° |
| 2026-05-01 12:28 | 40.94730 | 53.73853 | 33142 ft | 504 kts | 88° |
| 2026-05-01 12:29 | 40.95187 | 53.87769 | 33136 ft | 504 kts | 88° |
| 2026-05-01 12:29 | 40.95626 | 54.01624 | 33137 ft | 504 kts | 88° |
| 2026-05-01 12:30 | 40.96050 | 54.15540 | 33130 ft | 504 kts | 88° |
| 2026-05-01 12:31 | 40.96320 | 54.24732 | 33133 ft | 504 kts | 88° |
| 2026-05-01 12:31 | 40.96588 | 54.34081 | 33134 ft | 503 kts | 88° |
| 2026-05-01 12:32 | 40.96845 | 54.43294 | 33130 ft | 504 kts | 89° |
| 2026-05-01 12:32 | 40.97218 | 54.57184 | 33131 ft | 504 kts | 89° |
| 2026-05-01 12:33 | 40.97457 | 54.66451 | 33131 ft | 505 kts | 89° |
| 2026-05-01 12:33 | 40.97690 | 54.75742 | 33132 ft | 504 kts | 89° |
| 2026-05-01 12:34 | 40.97914 | 54.85011 | 33132 ft | 504 kts | 89° |
| 2026-05-01 12:34 | 40.98128 | 54.94264 | 33128 ft | 503 kts | 89° |
| 2026-05-01 12:35 | 40.98324 | 55.03507 | 33125 ft | 503 kts | 89° |
| 2026-05-01 12:35 | 40.98519 | 55.12715 | 33119 ft | 503 kts | 89° |
| 2026-05-01 12:36 | 40.98703 | 55.21977 | 33120 ft | 503 kts | 89° |
| 2026-05-01 12:36 | 40.98883 | 55.31252 | 33116 ft | 503 kts | 89° |
| 2026-05-01 12:37 | 40.99053 | 55.40518 | 33117 ft | 502 kts | 89° |
| 2026-05-01 12:37 | 40.99217 | 55.49733 | 33117 ft | 503 kts | 89° |
| 2026-05-01 12:38 | 40.99372 | 55.58982 | 33117 ft | 502 kts | 89° |
| 2026-05-01 12:38 | 40.99521 | 55.68226 | 33120 ft | 503 kts | 89° |
| 2026-05-01 12:39 | 40.99662 | 55.77484 | 33118 ft | 503 kts | 89° |
| 2026-05-01 12:39 | 40.99812 | 55.86663 | 33119 ft | 501 kts | 89° |
| 2026-05-01 12:40 | 40.99961 | 55.95898 | 33121 ft | 502 kts | 89° |
| 2026-05-01 12:40 | 41.00096 | 56.05133 | 33123 ft | 501 kts | 89° |
| 2026-05-01 12:41 | 41.00229 | 56.14351 | 33118 ft | 501 kts | 89° |
| 2026-05-01 12:41 | 41.00351 | 56.23575 | 33114 ft | 500 kts | 89° |
| 2026-05-01 12:42 | 41.00468 | 56.32780 | 33119 ft | 500 kts | 89° |
| 2026-05-01 12:42 | 41.00575 | 56.41995 | 33119 ft | 500 kts | 89° |
| 2026-05-01 12:43 | 41.00752 | 56.51197 | 33125 ft | 500 kts | 82° |
| 2026-05-01 12:43 | 41.01821 | 56.60312 | 33131 ft | 500 kts | 80° |
| 2026-05-01 12:44 | 41.02907 | 56.69337 | 33135 ft | 498 kts | 81° |
| 2026-05-01 12:45 | 41.05042 | 56.87411 | 33129 ft | 495 kts | 81° |
| 2026-05-01 12:45 | 41.06094 | 56.96423 | 33132 ft | 494 kts | 81° |
| 2026-05-01 12:46 | 41.07144 | 57.05442 | 33131 ft | 494 kts | 81° |
| 2026-05-01 12:46 | 41.08183 | 57.14456 | 33134 ft | 494 kts | 81° |
| 2026-05-01 12:47 | 41.09043 | 57.21951 | 33136 ft | 495 kts | 81° |
| 2026-05-01 12:47 | 41.10237 | 57.32447 | 33138 ft | 495 kts | 81° |
| 2026-05-01 12:48 | 41.11093 | 57.40020 | 33135 ft | 495 kts | 81° |
| 2026-05-01 12:48 | 41.12103 | 57.49019 | 33145 ft | 495 kts | 81° |
| 2026-05-01 12:49 | 41.13113 | 57.58078 | 33145 ft | 496 kts | 81° |
| 2026-05-01 12:49 | 41.14114 | 57.67132 | 33146 ft | 495 kts | 81° |
| 2026-05-01 12:50 | 41.15106 | 57.76163 | 33144 ft | 495 kts | 81° |
| 2026-05-01 12:50 | 41.16093 | 57.85215 | 33146 ft | 495 kts | 81° |
| 2026-05-01 12:51 | 41.17066 | 57.94207 | 33145 ft | 495 kts | 81° |
| 2026-05-01 12:52 | 41.18521 | 58.07784 | 33137 ft | 495 kts | 81° |
| 2026-05-01 12:52 | 41.19963 | 58.21383 | 33134 ft | 495 kts | 81° |
| 2026-05-01 12:53 | 41.21382 | 58.34923 | 33137 ft | 496 kts | 81° |
| 2026-05-01 12:54 | 41.22325 | 58.44001 | 33131 ft | 496 kts | 81° |
| 2026-05-01 12:54 | 41.23726 | 58.57628 | 33134 ft | 495 kts | 82° |
| 2026-05-01 12:55 | 41.25106 | 58.71218 | 33133 ft | 494 kts | 82° |
| 2026-05-01 12:56 | 41.26017 | 58.80276 | 33134 ft | 495 kts | 82° |
| 2026-05-01 12:56 | 41.26915 | 58.89281 | 33130 ft | 495 kts | 82° |
| 2026-05-01 12:57 | 41.27813 | 58.98348 | 33133 ft | 495 kts | 82° |
| 2026-05-01 12:57 | 41.29145 | 59.11951 | 33140 ft | 494 kts | 82° |
| 2026-05-01 12:58 | 41.30025 | 59.21034 | 33135 ft | 494 kts | 82° |
| 2026-05-01 12:59 | 41.31330 | 59.34645 | 33138 ft | 494 kts | 82° |
| 2026-05-01 12:59 | 41.32617 | 59.48234 | 33128 ft | 495 kts | 82° |
| 2026-05-01 13:00 | 41.33889 | 59.61837 | 33131 ft | 495 kts | 83° |
| 2026-05-01 13:01 | 41.33945 | 59.75572 | 33124 ft | 496 kts | 94° |
| 2026-05-01 13:02 | 41.33289 | 59.89315 | 33121 ft | 496 kts | 94° |
| 2026-05-01 13:07 | 41.32991 | 60.86882 | 35082 ft | 509 kts | 87° |
| 2026-05-01 13:07 | 41.33228 | 60.91581 | 35084 ft | 509 kts | 87° |
| 2026-05-01 13:08 | 41.33696 | 61.00973 | 35081 ft | 509 kts | 87° |
| 2026-05-01 13:08 | 41.34151 | 61.10300 | 35081 ft | 509 kts | 87° |
| 2026-05-01 13:09 | 41.34604 | 61.19717 | 35086 ft | 509 kts | 87° |
| 2026-05-01 13:09 | 41.35048 | 61.29121 | 35087 ft | 508 kts | 88° |
| 2026-05-01 13:10 | 41.35485 | 61.38511 | 35087 ft | 508 kts | 88° |
| 2026-05-01 13:10 | 41.35914 | 61.47904 | 35092 ft | 508 kts | 88° |
| 2026-05-01 13:11 | 41.36337 | 61.57229 | 35094 ft | 508 kts | 88° |
| 2026-05-01 13:11 | 41.36753 | 61.66626 | 35093 ft | 508 kts | 88° |
| 2026-05-01 13:12 | 41.37164 | 61.76043 | 35090 ft | 509 kts | 88° |
| 2026-05-01 13:12 | 41.37565 | 61.85451 | 35090 ft | 509 kts | 88° |
| 2026-05-01 13:13 | 41.37961 | 61.94872 | 35085 ft | 509 kts | 89° |
| 2026-05-01 13:13 | 41.38343 | 62.04221 | 35089 ft | 508 kts | 89° |
| 2026-05-01 13:14 | 41.38723 | 62.13634 | 35087 ft | 509 kts | 89° |
| 2026-05-01 13:14 | 41.39094 | 62.23039 | 35099 ft | 509 kts | 89° |
| 2026-05-01 13:15 | 41.39456 | 62.32430 | 35103 ft | 508 kts | 89° |
| 2026-05-01 13:15 | 41.39812 | 62.41838 | 35093 ft | 508 kts | 89° |
| 2026-05-01 13:16 | 41.40160 | 62.51241 | 35101 ft | 508 kts | 89° |
| 2026-05-01 13:16 | 41.40531 | 62.60582 | 35088 ft | 508 kts | 89° |
| 2026-05-01 13:17 | 41.41251 | 62.79414 | 35093 ft | 509 kts | 89° |
| 2026-05-01 13:18 | 41.41773 | 62.93543 | 35093 ft | 508 kts | 90° |
| 2026-05-01 13:18 | 41.42111 | 63.02942 | 35092 ft | 508 kts | 90° |
| 2026-05-01 13:19 | 41.42439 | 63.12306 | 35090 ft | 508 kts | 90° |
| 2026-05-01 13:20 | 41.42919 | 63.26408 | 35087 ft | 508 kts | 90° |
| 2026-05-01 13:20 | 41.43229 | 63.35816 | 35088 ft | 508 kts | 90° |
| 2026-05-01 13:21 | 41.43680 | 63.49921 | 35085 ft | 505 kts | 90° |
| 2026-05-01 13:21 | 41.43967 | 63.59208 | 35083 ft | 505 kts | 90° |
| 2026-05-01 13:22 | 41.44248 | 63.68549 | 35088 ft | 505 kts | 90° |
| 2026-05-01 13:22 | 41.44505 | 63.77886 | 35086 ft | 503 kts | 91° |
| 2026-05-01 13:23 | 41.44758 | 63.87194 | 35086 ft | 502 kts | 91° |
| 2026-05-01 13:23 | 41.45000 | 63.96477 | 35086 ft | 501 kts | 91° |
| 2026-05-01 13:24 | 41.45236 | 64.05756 | 35082 ft | 501 kts | 91° |
| 2026-05-01 13:25 | 41.45576 | 64.19702 | 35082 ft | 500 kts | 91° |
| 2026-05-01 13:25 | 41.45794 | 64.28975 | 35087 ft | 500 kts | 91° |
| 2026-05-01 13:26 | 41.46002 | 64.38197 | 35098 ft | 500 kts | 92° |
| 2026-05-01 13:26 | 41.46204 | 64.47471 | 35098 ft | 500 kts | 92° |
| 2026-05-01 13:27 | 41.46399 | 64.56756 | 35097 ft | 501 kts | 92° |
| 2026-05-01 13:27 | 41.46676 | 64.70639 | 35097 ft | 501 kts | 92° |
| 2026-05-01 13:28 | 41.46939 | 64.84597 | 35096 ft | 501 kts | 92° |
| 2026-05-01 13:29 | 41.47261 | 65.03121 | 35090 ft | 500 kts | 92° |
| 2026-05-01 13:31 | 41.47688 | 65.30960 | 35090 ft | 500 kts | 93° |
| 2026-05-01 13:32 | 41.47993 | 65.54130 | 35090 ft | 500 kts | 93° |
| 2026-05-01 13:33 | 41.48235 | 65.75738 | 35079 ft | 501 kts | 94° |
| 2026-05-01 13:34 | 41.48305 | 65.94329 | 35068 ft | 501 kts | 94° |
| 2026-05-01 13:35 | 41.48340 | 66.08309 | 35081 ft | 502 kts | 95° |
| 2026-05-01 13:36 | 41.48348 | 66.22292 | 35067 ft | 502 kts | 94° |
| 2026-05-01 13:36 | 41.48336 | 66.36180 | 35058 ft | 501 kts | 95° |
| 2026-05-01 13:37 | 41.48322 | 66.45474 | 35055 ft | 501 kts | 95° |
| 2026-05-01 13:37 | 41.48298 | 66.54768 | 35044 ft | 500 kts | 95° |
| 2026-05-01 13:38 | 41.47200 | 66.68353 | 35051 ft | 488 kts | 105° |
| 2026-05-01 13:39 | 41.45904 | 66.77238 | 35040 ft | 488 kts | 105° |
| 2026-05-01 13:39 | 41.44604 | 66.86134 | 35041 ft | 488 kts | 105° |
| 2026-05-01 13:40 | 41.43296 | 66.95015 | 35022 ft | 488 kts | 105° |
| 2026-05-01 13:40 | 41.41984 | 67.03883 | 35015 ft | 488 kts | 105° |
| 2026-05-01 13:41 | 41.40663 | 67.12754 | 35021 ft | 488 kts | 105° |
| 2026-05-01 13:41 | 41.39344 | 67.21571 | 35016 ft | 488 kts | 106° |
| 2026-05-01 13:42 | 41.38008 | 67.30448 | 35006 ft | 489 kts | 105° |
| 2026-05-01 13:42 | 41.36666 | 67.39321 | 35007 ft | 489 kts | 106° |
| 2026-05-01 13:43 | 41.35315 | 67.48197 | 35002 ft | 488 kts | 106° |
| 2026-05-01 13:43 | 41.33966 | 67.57012 | 35002 ft | 490 kts | 105° |
| 2026-05-01 13:44 | 41.32591 | 67.65957 | 35003 ft | 492 kts | 105° |
| 2026-05-01 13:44 | 41.31210 | 67.74890 | 34997 ft | 492 kts | 105° |
| 2026-05-01 13:45 | 41.29820 | 67.83827 | 34996 ft | 493 kts | 106° |
| 2026-05-01 13:45 | 41.28433 | 67.92748 | 34996 ft | 493 kts | 104° |
| 2026-05-01 13:46 | 41.27584 | 68.01846 | 35001 ft | 496 kts | 101° |
| 2026-05-01 13:46 | 41.26778 | 68.10903 | 35004 ft | 496 kts | 101° |
| 2026-05-01 13:47 | 41.25959 | 68.20012 | 34990 ft | 496 kts | 101° |
| 2026-05-01 13:47 | 41.25137 | 68.29096 | 34992 ft | 495 kts | 101° |
| 2026-05-01 13:48 | 41.24306 | 68.38178 | 34995 ft | 495 kts | 101° |
| 2026-05-01 13:48 | 41.23473 | 68.47216 | 34996 ft | 495 kts | 101° |
| 2026-05-01 13:49 | 41.22628 | 68.56292 | 35007 ft | 494 kts | 101° |
| 2026-05-01 13:49 | 41.21778 | 68.65349 | 35004 ft | 494 kts | 101° |
| 2026-05-01 13:50 | 41.20921 | 68.74410 | 34997 ft | 494 kts | 101° |
| 2026-05-01 13:50 | 41.20061 | 68.83411 | 35009 ft | 494 kts | 101° |
| 2026-05-01 13:51 | 41.19237 | 68.92504 | 35002 ft | 500 kts | 95° |
| 2026-05-01 13:51 | 41.19007 | 69.01725 | 35006 ft | 499 kts | 95° |
| 2026-05-01 13:52 | 41.18769 | 69.10929 | 34999 ft | 499 kts | 95° |
| 2026-05-01 13:52 | 41.18525 | 69.20131 | 34991 ft | 499 kts | 95° |
| 2026-05-01 13:53 | 41.17905 | 69.29359 | 35002 ft | 500 kts | 99° |
| 2026-05-01 13:53 | 41.16780 | 69.43103 | 35029 ft | 501 kts | 99° |
| 2026-05-01 13:54 | 41.16019 | 69.52301 | 35003 ft | 500 kts | 99° |
| 2026-05-01 13:54 | 41.15257 | 69.61452 | 35028 ft | 499 kts | 99° |
| 2026-05-01 13:55 | 41.14488 | 69.70597 | 35050 ft | 499 kts | 99° |
| 2026-05-01 13:55 | 41.13711 | 69.79744 | 35084 ft | 499 kts | 99° |
| 2026-05-01 13:56 | 41.12927 | 69.88895 | 35070 ft | 500 kts | 99° |
| 2026-05-01 13:56 | 41.12136 | 69.98038 | 35088 ft | 502 kts | 99° |
| 2026-05-01 13:57 | 41.11464 | 70.05747 | 35092 ft | 502 kts | 99° |
| 2026-05-01 13:57 | 41.10522 | 70.16433 | 35102 ft | 502 kts | 99° |
| 2026-05-01 13:58 | 41.09978 | 70.25686 | 35131 ft | 507 kts | 88° |
| 2026-05-01 13:58 | 41.10625 | 70.34952 | 35120 ft | 506 kts | 86° |
| 2026-05-01 13:59 | 41.11314 | 70.44249 | 35125 ft | 507 kts | 87° |
| 2026-05-01 13:59 | 41.11978 | 70.53556 | 35123 ft | 506 kts | 86° |
| 2026-05-01 14:00 | 41.12644 | 70.62830 | 35117 ft | 507 kts | 86° |
| 2026-05-01 14:00 | 41.13298 | 70.72147 | 35097 ft | 507 kts | 86° |
| 2026-05-01 14:01 | 41.13946 | 70.81453 | 35082 ft | 506 kts | 86° |
| 2026-05-01 14:01 | 41.14584 | 70.90759 | 35067 ft | 505 kts | 86° |
| 2026-05-01 14:02 | 41.15216 | 71.00053 | 35066 ft | 505 kts | 86° |
| 2026-05-01 14:02 | 41.15840 | 71.09354 | 35047 ft | 505 kts | 86° |
| 2026-05-01 14:03 | 41.16452 | 71.18584 | 35029 ft | 505 kts | 86° |
| 2026-05-01 14:03 | 41.17059 | 71.27876 | 35003 ft | 505 kts | 86° |
| 2026-05-01 14:04 | 41.17661 | 71.37186 | 34979 ft | 505 kts | 86° |
| 2026-05-01 14:04 | 41.18154 | 71.44908 | 34974 ft | 505 kts | 86° |
| 2026-05-01 14:05 | 41.18840 | 71.55782 | 34963 ft | 505 kts | 86° |
| 2026-05-01 14:05 | 41.19417 | 71.65071 | 34964 ft | 508 kts | 86° |
| 2026-05-01 14:06 | 41.19991 | 71.74421 | 34970 ft | 508 kts | 86° |
| 2026-05-01 14:06 | 41.20557 | 71.83790 | 34982 ft | 508 kts | 86° |
| 2026-05-01 14:07 | 41.21110 | 71.93148 | 34984 ft | 509 kts | 86° |
| 2026-05-01 14:08 | 41.21931 | 72.07212 | 34990 ft | 509 kts | 86° |
| 2026-05-01 14:08 | 41.22467 | 72.16594 | 34993 ft | 509 kts | 86° |
| 2026-05-01 14:09 | 41.23000 | 72.25986 | 34998 ft | 509 kts | 87° |
| 2026-05-01 14:09 | 41.23533 | 72.35328 | 34990 ft | 510 kts | 87° |
| 2026-05-01 14:10 | 41.24053 | 72.44711 | 35004 ft | 510 kts | 87° |
| 2026-05-01 14:10 | 41.24572 | 72.54115 | 35019 ft | 510 kts | 87° |
| 2026-05-01 14:11 | 41.25079 | 72.63514 | 35030 ft | 509 kts | 87° |
| 2026-05-01 14:11 | 41.25810 | 72.77537 | 35042 ft | 509 kts | 88° |
| 2026-05-01 14:12 | 41.26295 | 72.86980 | 35058 ft | 509 kts | 88° |
| 2026-05-01 14:12 | 41.26766 | 72.96318 | 35079 ft | 509 kts | 88° |
| 2026-05-01 14:13 | 41.27154 | 73.04106 | 35068 ft | 508 kts | 88° |
| 2026-05-01 14:13 | 41.27690 | 73.15076 | 35076 ft | 508 kts | 88° |
| 2026-05-01 14:14 | 41.28140 | 73.24461 | 35078 ft | 508 kts | 88° |
| 2026-05-01 14:14 | 41.28580 | 73.33793 | 35082 ft | 508 kts | 88° |
| 2026-05-01 14:15 | 41.29015 | 73.43155 | 35099 ft | 507 kts | 88° |
| 2026-05-01 14:15 | 41.29443 | 73.52550 | 35111 ft | 507 kts | 88° |
| 2026-05-01 14:16 | 41.29862 | 73.61912 | 35112 ft | 507 kts | 88° |
| 2026-05-01 14:16 | 41.30273 | 73.71278 | 35104 ft | 508 kts | 88° |
| 2026-05-01 14:17 | 41.30678 | 73.80653 | 35108 ft | 508 kts | 88° |
| 2026-05-01 14:17 | 41.31072 | 73.89975 | 35104 ft | 508 kts | 88° |
| 2026-05-01 14:18 | 41.31462 | 73.99372 | 35110 ft | 508 kts | 88° |
| 2026-05-01 14:18 | 41.32012 | 74.07141 | 35104 ft | 506 kts | 85° |
| 2026-05-01 14:19 | 41.32772 | 74.17975 | 35113 ft | 504 kts | 85° |
| 2026-05-01 14:19 | 41.33445 | 74.27264 | 35117 ft | 505 kts | 85° |
| 2026-05-01 14:20 | 41.34420 | 74.41229 | 35135 ft | 505 kts | 85° |
| 2026-05-01 14:21 | 41.35063 | 74.50494 | 35144 ft | 505 kts | 85° |
| 2026-05-01 14:21 | 41.35591 | 74.58254 | 35142 ft | 506 kts | 85° |
| 2026-05-01 14:22 | 41.36537 | 74.72252 | 35147 ft | 506 kts | 85° |
| 2026-05-01 14:22 | 41.37156 | 74.81575 | 35151 ft | 506 kts | 85° |
| 2026-05-01 14:23 | 41.37770 | 74.90932 | 35149 ft | 506 kts | 85° |
| 2026-05-01 14:23 | 41.38372 | 75.00221 | 35153 ft | 506 kts | 85° |
| 2026-05-01 14:24 | 41.38969 | 75.09566 | 35158 ft | 507 kts | 85° |
| 2026-05-01 14:24 | 41.39561 | 75.18926 | 35151 ft | 507 kts | 85° |
| 2026-05-01 14:25 | 41.40145 | 75.28296 | 35157 ft | 507 kts | 85° |
| 2026-05-01 14:25 | 41.40718 | 75.37628 | 35150 ft | 507 kts | 85° |
| 2026-05-01 14:26 | 41.41569 | 75.51681 | 35135 ft | 507 kts | 85° |
| 2026-05-01 14:27 | 41.42126 | 75.61054 | 35135 ft | 507 kts | 85° |
| 2026-05-01 14:27 | 41.42671 | 75.70359 | 35130 ft | 507 kts | 86° |
| 2026-05-01 14:28 | 41.43485 | 75.84453 | 35243 ft | 509 kts | 85° |
| 2026-05-01 14:28 | 41.43753 | 75.89152 | 35451 ft | 509 kts | 85° |
| 2026-05-01 14:28 | 41.44019 | 75.93855 | 35638 ft | 509 kts | 85° |
| 2026-05-01 14:29 | 41.44283 | 75.98565 | 35820 ft | 509 kts | 85° |
| 2026-05-01 14:29 | 41.44546 | 76.03280 | 35969 ft | 510 kts | 85° |
| 2026-05-01 14:30 | 41.45321 | 76.17407 | 36390 ft | 512 kts | 85° |
| 2026-05-01 14:30 | 41.45579 | 76.22165 | 36522 ft | 513 kts | 85° |
| 2026-05-01 14:30 | 41.45834 | 76.26928 | 36639 ft | 514 kts | 85° |
| 2026-05-01 14:31 | 41.46340 | 76.36465 | 36901 ft | 516 kts | 85° |
| 2026-05-01 14:31 | 41.46590 | 76.41239 | 37041 ft | 517 kts | 85° |
| 2026-05-01 14:31 | 41.46839 | 76.46034 | 37114 ft | 517 kts | 86° |
| 2026-05-01 14:32 | 41.47330 | 76.55583 | 37119 ft | 516 kts | 85° |
| 2026-05-01 14:32 | 41.47810 | 76.65086 | 37124 ft | 517 kts | 85° |
| 2026-05-01 14:33 | 41.48287 | 76.74673 | 37124 ft | 517 kts | 86° |
| 2026-05-01 14:33 | 41.48754 | 76.84265 | 37136 ft | 517 kts | 86° |
| 2026-05-01 14:34 | 41.49215 | 76.93840 | 37124 ft | 516 kts | 86° |
| 2026-05-01 14:34 | 41.49663 | 77.03374 | 37136 ft | 515 kts | 85° |
| 2026-05-01 14:35 | 41.50107 | 77.12919 | 37131 ft | 516 kts | 86° |
| 2026-05-01 14:35 | 41.50541 | 77.22480 | 37132 ft | 515 kts | 86° |
| 2026-05-01 14:36 | 41.50965 | 77.31955 | 37127 ft | 514 kts | 86° |
| 2026-05-01 14:36 | 41.51383 | 77.41486 | 37137 ft | 514 kts | 86° |
| 2026-05-01 14:37 | 41.51793 | 77.51008 | 37138 ft | 514 kts | 86° |
| 2026-05-01 14:37 | 41.52192 | 77.60479 | 37146 ft | 515 kts | 86° |
| 2026-05-01 14:38 | 41.52587 | 77.70009 | 37163 ft | 514 kts | 86° |
| 2026-05-01 14:38 | 41.52973 | 77.79546 | 37163 ft | 514 kts | 86° |
| 2026-05-01 14:39 | 41.53352 | 77.89091 | 37165 ft | 515 kts | 86° |
| 2026-05-01 14:39 | 41.53722 | 77.98630 | 37190 ft | 514 kts | 86° |
| 2026-05-01 14:40 | 41.54085 | 78.08150 | 37191 ft | 513 kts | 86° |
| 2026-05-01 14:40 | 41.54438 | 78.17631 | 37192 ft | 513 kts | 86° |
| 2026-05-01 14:41 | 41.54785 | 78.27181 | 37196 ft | 514 kts | 86° |
| 2026-05-01 14:41 | 41.55124 | 78.36729 | 37199 ft | 514 kts | 86° |
| 2026-05-01 14:42 | 41.55456 | 78.46262 | 37203 ft | 515 kts | 86° |
| 2026-05-01 14:42 | 41.55780 | 78.55799 | 37209 ft | 514 kts | 86° |
| 2026-05-01 14:43 | 41.56093 | 78.65294 | 37205 ft | 514 kts | 86° |
| 2026-05-01 14:43 | 41.56401 | 78.74848 | 37203 ft | 513 kts | 86° |
| 2026-05-01 14:44 | 41.56330 | 78.84388 | 37180 ft | 516 kts | 99° |
| 2026-05-01 14:44 | 41.53705 | 78.98293 | 37270 ft | 513 kts | 105° |
| 2026-05-01 14:45 | 41.50957 | 79.12121 | 37238 ft | 518 kts | 105° |
| 2026-05-01 14:46 | 41.49091 | 79.21402 | 37208 ft | 517 kts | 105° |
| 2026-05-01 14:46 | 41.46292 | 79.35307 | 37168 ft | 517 kts | 104° |
| 2026-05-01 14:47 | 41.44415 | 79.44557 | 37136 ft | 517 kts | 104° |
| 2026-05-01 14:48 | 41.41578 | 79.58482 | 37129 ft | 519 kts | 104° |
| 2026-05-01 14:48 | 41.38736 | 79.72332 | 37113 ft | 519 kts | 105° |
| 2026-05-01 14:49 | 41.34892 | 79.90918 | 37116 ft | 520 kts | 104° |
| 2026-05-01 14:50 | 41.31023 | 80.09461 | 37101 ft | 521 kts | 104° |
| 2026-05-01 14:51 | 41.28103 | 80.23340 | 37110 ft | 521 kts | 104° |
| 2026-05-01 14:52 | 41.25156 | 80.37249 | 37102 ft | 521 kts | 105° |
| 2026-05-01 14:53 | 41.22173 | 80.51136 | 37101 ft | 521 kts | 105° |
| 2026-05-01 14:53 | 41.20178 | 80.60388 | 37085 ft | 520 kts | 105° |
| 2026-05-01 14:54 | 41.18175 | 80.69630 | 37091 ft | 521 kts | 105° |
| 2026-05-01 14:54 | 41.16176 | 80.78820 | 37096 ft | 521 kts | 105° |
| 2026-05-01 14:55 | 41.14154 | 80.88073 | 37089 ft | 521 kts | 105° |
| 2026-05-01 14:55 | 41.12128 | 80.97305 | 37098 ft | 520 kts | 105° |
| 2026-05-01 14:56 | 41.10095 | 81.06533 | 37092 ft | 521 kts | 105° |
| 2026-05-01 14:56 | 41.08054 | 81.15756 | 37093 ft | 521 kts | 105° |
| 2026-05-01 14:57 | 41.06018 | 81.24918 | 37086 ft | 521 kts | 105° |
| 2026-05-01 14:57 | 41.02936 | 81.38714 | 37092 ft | 520 kts | 105° |
| 2026-05-01 14:58 | 41.00872 | 81.47904 | 37087 ft | 520 kts | 105° |
| 2026-05-01 14:58 | 40.98800 | 81.57092 | 37089 ft | 521 kts | 105° |
| 2026-05-01 14:59 | 40.96724 | 81.66282 | 37091 ft | 520 kts | 103° |
| 2026-05-01 14:59 | 40.94984 | 81.75484 | 37084 ft | 519 kts | 102° |
| 2026-05-01 15:00 | 40.92341 | 81.89382 | 37089 ft | 519 kts | 102° |
| 2026-05-01 15:01 | 40.90572 | 81.98635 | 37096 ft | 519 kts | 102° |
| 2026-05-01 15:01 | 40.88796 | 82.07889 | 37093 ft | 519 kts | 102° |
| 2026-05-01 15:02 | 40.87014 | 82.17133 | 37093 ft | 519 kts | 102° |
| 2026-05-01 15:02 | 40.85233 | 82.26327 | 37097 ft | 519 kts | 102° |
| 2026-05-01 15:03 | 40.83435 | 82.35568 | 37094 ft | 519 kts | 102° |
| 2026-05-01 15:03 | 40.81631 | 82.44793 | 37086 ft | 519 kts | 102° |
| 2026-05-01 15:04 | 40.79820 | 82.54016 | 37088 ft | 519 kts | 102° |
| 2026-05-01 15:04 | 40.77997 | 82.63250 | 37090 ft | 519 kts | 103° |
| 2026-05-01 15:05 | 40.76181 | 82.72413 | 37091 ft | 519 kts | 103° |
| 2026-05-01 15:05 | 40.74347 | 82.81627 | 37098 ft | 520 kts | 103° |
| 2026-05-01 15:06 | 40.72497 | 82.90876 | 37102 ft | 520 kts | 103° |
| 2026-05-01 15:06 | 40.70654 | 83.00045 | 37102 ft | 520 kts | 103° |
| 2026-05-01 15:07 | 40.68794 | 83.09263 | 37097 ft | 520 kts | 103° |
| 2026-05-01 15:07 | 40.66924 | 83.18485 | 37100 ft | 522 kts | 103° |
| 2026-05-01 15:08 | 40.65043 | 83.27722 | 37102 ft | 522 kts | 103° |
| 2026-05-01 15:08 | 40.63156 | 83.36945 | 37106 ft | 522 kts | 103° |
| 2026-05-01 15:09 | 40.61581 | 83.44611 | 37101 ft | 522 kts | 103° |
| 2026-05-01 15:09 | 40.59680 | 83.53831 | 37117 ft | 522 kts | 103° |
| 2026-05-01 15:10 | 40.57766 | 83.63071 | 37112 ft | 523 kts | 103° |
| 2026-05-01 15:10 | 40.54880 | 83.76923 | 37112 ft | 524 kts | 103° |
| 2026-05-01 15:11 | 40.51976 | 83.90774 | 37108 ft | 524 kts | 103° |
| 2026-05-01 15:12 | 40.50068 | 84.00033 | 37114 ft | 525 kts | 102° |
| 2026-05-01 15:12 | 40.47258 | 84.13954 | 37115 ft | 525 kts | 102° |
| 2026-05-01 15:14 | 40.42522 | 84.37089 | 37108 ft | 526 kts | 102° |
| 2026-05-01 15:14 | 40.39665 | 84.50938 | 37122 ft | 526 kts | 102° |
| 2026-05-01 15:15 | 40.35808 | 84.69462 | 37107 ft | 526 kts | 102° |
| 2026-05-01 15:16 | 40.31925 | 84.87951 | 37106 ft | 526 kts | 102° |
| 2026-05-01 15:18 | 40.27029 | 85.11038 | 37115 ft | 525 kts | 102° |
| 2026-05-01 15:19 | 40.23097 | 85.29402 | 37121 ft | 526 kts | 102° |
| 2026-05-01 15:19 | 40.20117 | 85.43216 | 37140 ft | 526 kts | 102° |
| 2026-05-01 15:20 | 40.17120 | 85.57022 | 37124 ft | 525 kts | 102° |
| 2026-05-01 15:21 | 40.15115 | 85.66208 | 37121 ft | 526 kts | 102° |
| 2026-05-01 15:21 | 40.13099 | 85.75406 | 37125 ft | 526 kts | 102° |
| 2026-05-01 15:22 | 40.10064 | 85.89180 | 37124 ft | 526 kts | 102° |
| 2026-05-01 15:22 | 40.07894 | 85.98301 | 37143 ft | 529 kts | 110° |
| 2026-05-01 15:23 | 40.04176 | 86.06567 | 37123 ft | 534 kts | 122° |
| 2026-05-01 15:23 | 39.99931 | 86.14530 | 37128 ft | 534 kts | 123° |
| 2026-05-01 15:24 | 39.95684 | 86.22477 | 37126 ft | 533 kts | 123° |
| 2026-05-01 15:24 | 39.91424 | 86.30431 | 37128 ft | 534 kts | 123° |
| 2026-05-01 15:25 | 39.87193 | 86.38308 | 37131 ft | 534 kts | 123° |
| 2026-05-01 15:25 | 39.82929 | 86.46231 | 37131 ft | 533 kts | 123° |
| 2026-05-01 15:26 | 39.78657 | 86.54144 | 37131 ft | 534 kts | 123° |
| 2026-05-01 15:26 | 39.74391 | 86.62031 | 37132 ft | 532 kts | 123° |
| 2026-05-01 15:27 | 39.70165 | 86.69822 | 37124 ft | 530 kts | 123° |
| 2026-05-01 15:28 | 39.63783 | 86.81553 | 37126 ft | 530 kts | 123° |
| 2026-05-01 15:28 | 39.59521 | 86.89362 | 37124 ft | 530 kts | 123° |
| 2026-05-01 15:29 | 39.53138 | 87.01023 | 37120 ft | 530 kts | 124° |
| 2026-05-01 15:30 | 39.44575 | 87.16599 | 37123 ft | 530 kts | 124° |
| 2026-05-01 15:31 | 39.31726 | 87.39830 | 37119 ft | 531 kts | 124° |
| 2026-05-01 15:32 | 39.23103 | 87.55325 | 37120 ft | 531 kts | 124° |
| 2026-05-01 15:34 | 39.10136 | 87.78488 | 37126 ft | 531 kts | 124° |